Hauptseite
METAR-TAF:

METAR-TAF

Flughäfen :

Georgetown, Ascension

Flugfeld Wideawake

Breite: 07-58S, Länge: 014-24W, Höhe: 86 m

Beobachtung

Neuester Wetterbericht von vor 1 Stunde und 13 Minuten, um 10:50 UTC
Wind 21 kt aus Südost
Temperatur 27°C
Luftfeuchtigkeit 58%
Luftdruck 1015 hPa
Sichtweite 10 km oder mehr
Leicht bewölkt in der Höhe von 2600 ft

METAR: FHAW 221050Z 13021KT 9999 FEW026 27/18 Q1015 BLU

Zeit: 12:03 (12:03 UTC)

Prognose

Neuester Wetterbericht von vor 1 Stunde und 33 Minuten, um 10:30 UTC
Gültige Prognose vom 22 um 12 UTC bis 23 um 06 UTC
Wind 18 kt aus Ost/Südost, Böen bis zu 28 kt
Sichtweite 10 km oder mehr
Leicht bewölkt in der Höhe von 2500 ft
Wahrscheinlichkeit 30% :
Zeitweise
vom 22 um 12 UTC bis 23 um 06 UTC
Sichtweite: 7000 m
Aufgelockert bewölkt in der Höhe von 1500 ft
Regenschauer

TAF: FHAW 221030Z 2212/2306 12018G28KT 9999 FEW025 PROB30 TEMPO 2212/2306 7000 SHRA SCT015

Wetterbeobachtungen und Prognosen von mehr als 4000 Flughäfen (METAR und TAF Bericht).

Die verfügbaren Stationen werden durch gelbe und rote Markierungen auf der Karte dargestellt.

Führen Sie die Maus auf sie, um den Namen der Station zu sehen.

Darauf klicken, um die Beobachtung von Wetterbeobachtungen und Prognosen zu sehen.

Um die Karte zu ändern : klicken Sie auf den grünen Tasten mit einem schwarzen Kreuz Zum Vergrößern, auf den grünen Button mit einem Gedankenstrich zu verkleinern, oder auf die grünen Pfeile für benachbarte Karten.


METAR-TAF: